createdAt,value
2023-01-29T00:00:34.176Z,14.00
2023-01-29T00:03:24.826Z,13.38
2023-01-29T00:06:11.062Z,14.25
2023-01-29T00:08:57.622Z,15.07
2023-01-29T00:11:43.154Z,15.18
2023-01-29T00:14:28.633Z,14.88
2023-01-29T00:17:14.487Z,15.00
2023-01-29T00:20:01.833Z,13.88
2023-01-29T00:22:47.270Z,13.90
2023-01-29T00:25:32.633Z,14.15
2023-01-29T00:28:18.525Z,14.68
2023-01-29T00:31:08.655Z,14.77
2023-01-29T00:33:54.530Z,15.45
2023-01-29T00:36:44.283Z,15.20
2023-01-29T00:42:52.591Z,14.43
2023-01-29T00:45:38.642Z,14.20
2023-01-29T00:48:24.837Z,15.57
2023-01-29T00:51:10.586Z,15.00
2023-01-29T00:53:58.392Z,14.38
2023-01-29T00:56:44.030Z,14.35
2023-01-29T00:59:30.574Z,13.95
2023-01-29T01:02:35.243Z,14.60
2023-01-29T01:05:22.877Z,15.32
2023-01-29T01:08:29.858Z,15.25
2023-01-29T01:11:17.933Z,15.88
2023-01-29T01:14:03.414Z,17.17
2023-01-29T01:16:49.487Z,15.93
2023-01-29T01:19:35.250Z,16.38
2023-01-29T01:22:20.840Z,15.75
2023-01-29T01:25:07.501Z,16.58
2023-01-29T01:27:55.015Z,15.70
2023-01-29T01:30:41.067Z,17.00
2023-01-29T01:33:26.507Z,17.25
2023-01-29T01:36:13.734Z,16.20
2023-01-29T01:38:59.301Z,16.52
2023-01-29T01:41:46.347Z,16.92
2023-01-29T01:45:08.184Z,16.38
2023-01-29T01:47:57.547Z,15.88
2023-01-29T01:50:46.842Z,15.50
2023-01-29T01:53:38.589Z,15.93
2023-01-29T01:56:29.403Z,16.45
2023-01-29T01:59:17.585Z,16.15
2023-01-29T02:02:25.034Z,16.38
2023-01-29T02:05:31.030Z,15.77
2023-01-29T02:08:42.137Z,16.25
2023-01-29T02:11:27.721Z,15.18
2023-01-29T02:14:13.389Z,15.85
2023-01-29T02:17:00.807Z,15.80
2023-01-29T02:19:57.598Z,15.73
2023-01-29T02:23:03.883Z,15.07
2023-01-29T02:26:20.583Z,14.98
2023-01-29T02:29:27.266Z,15.90
2023-01-29T02:32:20.641Z,15.68
2023-01-29T02:35:25.990Z,15.32
2023-01-29T02:38:18.223Z,15.73
2023-01-29T02:41:09.816Z,15.20
2023-01-29T02:46:52.349Z,14.88
2023-01-29T02:49:46.705Z,16.80
2023-01-29T02:52:39.477Z,16.98
2023-01-29T02:55:33.580Z,16.30
2023-01-29T02:58:26.381Z,15.95
2023-01-29T03:01:21.383Z,16.25
2023-01-29T03:04:12.984Z,16.02
2023-01-29T03:07:02.626Z,16.83
2023-01-29T03:09:51.527Z,16.55
2023-01-29T03:12:41.129Z,17.33
2023-01-29T03:15:31.220Z,16.80
2023-01-29T03:18:43.675Z,16.45
2023-01-29T03:21:59.197Z,17.08
2023-01-29T03:25:09.057Z,17.30
2023-01-29T03:28:17.587Z,16.50
2023-01-29T03:31:28.823Z,17.60
2023-01-29T03:34:24.532Z,17.50
2023-01-29T03:37:19.249Z,18.70
2023-01-29T03:40:06.803Z,17.60
2023-01-29T03:43:03.400Z,17.77
2023-01-29T03:46:00.010Z,17.83
2023-01-29T03:48:54.328Z,18.23
2023-01-29T03:51:48.674Z,17.98
2023-01-29T03:54:44.572Z,17.35
2023-01-29T03:57:35.709Z,18.75
2023-01-29T04:00:28.149Z,17.73
2023-01-29T04:03:23.312Z,17.23
2023-01-29T04:06:13.347Z,19.15
2023-01-29T04:09:22.244Z,18.40
2023-01-29T04:12:12.280Z,18.70
2023-01-29T04:15:02.215Z,18.15
2023-01-29T04:17:51.578Z,18.55
2023-01-29T04:20:44.966Z,18.70
2023-01-29T04:23:30.410Z,18.92
2023-01-29T04:26:30.373Z,17.63
2023-01-29T04:29:33.127Z,18.13
2023-01-29T04:32:28.595Z,17.85
2023-01-29T04:35:26.704Z,18.23
2023-01-29T04:38:34.256Z,18.63
2023-01-29T04:41:24.515Z,17.70
2023-01-29T04:44:16.860Z,17.80
2023-01-29T04:47:14.476Z,19.17
2023-01-29T04:50:08.145Z,19.92
2023-01-29T04:53:00.109Z,19.08
2023-01-29T04:55:51.807Z,19.05
2023-01-29T04:58:43.503Z,17.77
2023-01-29T05:04:20.987Z,17.58
2023-01-29T05:07:09.351Z,17.55
2023-01-29T05:09:56.267Z,17.38
2023-01-29T05:12:46.465Z,16.48
2023-01-29T05:15:37.250Z,17.52
2023-01-29T05:18:23.288Z,17.05
2023-01-29T05:21:10.709Z,17.60
2023-01-29T05:24:14.051Z,17.60
2023-01-29T05:27:18.225Z,18.35
2023-01-29T05:30:04.769Z,18.25
2023-01-29T05:32:50.327Z,18.75
2023-01-29T05:35:36.146Z,17.38
2023-01-29T05:38:23.947Z,18.35
2023-01-29T05:41:09.525Z,17.38
2023-01-29T05:43:54.854Z,17.45
2023-01-29T05:46:40.754Z,18.23
2023-01-29T05:49:26.506Z,19.17
2023-01-29T05:52:12.241Z,18.20
2023-01-29T05:54:59.649Z,19.10
2023-01-29T05:57:45.115Z,19.20
2023-01-29T06:00:30.861Z,19.33
2023-01-29T06:03:17.006Z,19.13
2023-01-29T06:06:03.110Z,20.48
2023-01-29T06:08:48.827Z,18.90
2023-01-29T06:11:36.056Z,19.80
2023-01-29T06:14:21.902Z,20.65
2023-01-29T06:17:07.457Z,21.27
2023-01-29T06:19:52.679Z,20.80
2023-01-29T06:22:38.527Z,21.15
2023-01-29T06:25:24.375Z,21.48
2023-01-29T06:28:11.646Z,20.55
2023-01-29T06:31:08.339Z,20.73
2023-01-29T06:34:02.119Z,20.77
2023-01-29T06:36:47.474Z,19.73
2023-01-29T06:39:32.967Z,21.05
2023-01-29T06:42:18.634Z,20.63
2023-01-29T06:45:06.491Z,19.30
2023-01-29T06:47:52.657Z,20.23
2023-01-29T06:50:38.415Z,19.55
2023-01-29T06:53:24.915Z,19.42
2023-01-29T06:56:10.629Z,20.00
2023-01-29T06:58:56.164Z,20.67
2023-01-29T07:01:44.437Z,19.63
2023-01-29T07:04:30.595Z,19.83
2023-01-29T07:07:16.282Z,19.63
2023-01-29T07:10:01.976Z,18.58
2023-01-29T07:12:47.412Z,20.55
2023-01-29T07:15:33.231Z,20.75
2023-01-29T07:18:20.390Z,20.42
2023-01-29T07:21:07.608Z,19.55
2023-01-29T07:23:53.391Z,19.67
2023-01-29T07:26:39.162Z,20.20
2023-01-29T07:29:24.689Z,19.80
2023-01-29T07:32:10.466Z,20.33
2023-01-29T07:34:57.449Z,19.83
2023-01-29T07:37:42.896Z,20.73
2023-01-29T07:40:28.418Z,21.17
2023-01-29T07:43:14.551Z,19.73
2023-01-29T07:46:02.881Z,20.63
2023-01-29T07:48:48.920Z,20.98
2023-01-29T07:51:36.167Z,20.25
2023-01-29T07:54:22.025Z,20.05
2023-01-29T07:57:07.452Z,19.45
2023-01-29T07:59:53.055Z,18.90
2023-01-29T08:02:38.786Z,20.08
2023-01-29T08:05:24.253Z,18.70
2023-01-29T08:08:11.798Z,19.50
2023-01-29T08:10:57.546Z,18.88
2023-01-29T08:13:43.221Z,19.33
2023-01-29T08:16:28.775Z,18.77
2023-01-29T08:19:14.933Z,19.15
2023-01-29T08:22:00.217Z,18.50
2023-01-29T08:24:53.848Z,19.08
2023-01-29T08:27:45.828Z,19.80
2023-01-29T08:30:34.223Z,18.70
2023-01-29T08:33:29.830Z,19.23
2023-01-29T08:36:19.385Z,19.20
2023-01-29T08:39:04.834Z,18.60
2023-01-29T08:41:51.636Z,18.60
2023-01-29T08:44:37.204Z,18.42
2023-01-29T08:47:22.980Z,17.90
2023-01-29T08:50:10.115Z,18.88
2023-01-29T08:52:59.082Z,16.67
2023-01-29T08:55:46.659Z,18.40
2023-01-29T08:58:34.071Z,18.15
2023-01-29T09:01:19.934Z,18.05
2023-01-29T09:04:05.868Z,17.75
2023-01-29T09:06:52.089Z,17.35
2023-01-29T09:09:38.373Z,16.73
2023-01-29T09:12:24.129Z,17.15
2023-01-29T09:15:11.927Z,15.57
2023-01-29T09:17:57.715Z,15.98
2023-01-29T09:20:43.483Z,17.10
2023-01-29T09:23:30.434Z,15.90
2023-01-29T09:26:15.953Z,16.13
2023-01-29T09:29:02.010Z,15.27
2023-01-29T09:31:49.552Z,16.17
2023-01-29T09:34:35.500Z,14.85
2023-01-29T09:37:23.168Z,14.60
2023-01-29T09:40:22.897Z,15.07
2023-01-29T09:43:15.215Z,14.73
2023-01-29T09:46:05.800Z,14.88
2023-01-29T09:49:01.219Z,15.23
2023-01-29T09:51:51.486Z,14.73
2023-01-29T09:54:48.943Z,13.90
2023-01-29T09:57:43.979Z,14.45
2023-01-29T10:00:38.495Z,14.23
2023-01-29T10:03:44.480Z,12.70
2023-01-29T10:06:50.461Z,13.60
2023-01-29T10:10:00.801Z,12.18
2023-01-29T10:13:00.623Z,11.63
2023-01-29T10:15:58.543Z,13.00
2023-01-29T10:19:12.651Z,12.38
2023-01-29T10:22:37.898Z,12.48
2023-01-29T10:25:24.353Z,13.25
2023-01-29T10:28:18.520Z,12.10
2023-01-29T10:31:08.674Z,12.98
2023-01-29T10:34:03.447Z,11.90
2023-01-29T10:36:50.409Z,12.82
2023-01-29T10:39:37.739Z,12.80
2023-01-29T10:42:30.653Z,12.85
2023-01-29T10:45:26.315Z,12.60
2023-01-29T10:48:38.989Z,13.50
2023-01-29T10:51:45.695Z,11.88
2023-01-29T10:54:51.524Z,12.50
2023-01-29T10:58:03.138Z,12.68
2023-01-29T11:00:50.159Z,13.70
2023-01-29T11:03:35.976Z,13.45
2023-01-29T11:06:27.683Z,13.80
2023-01-29T11:12:30.570Z,13.45
2023-01-29T11:15:20.040Z,14.02
2023-01-29T11:18:11.641Z,14.32
2023-01-29T11:21:03.805Z,15.20
2023-01-29T11:23:49.667Z,13.73
2023-01-29T11:26:39.719Z,14.85
2023-01-29T11:29:37.964Z,15.07
2023-01-29T11:32:30.204Z,15.93
2023-01-29T11:35:22.219Z,16.08
2023-01-29T11:38:18.785Z,15.23
2023-01-29T11:41:08.261Z,15.60
2023-01-29T11:43:54.161Z,15.80
2023-01-29T11:46:41.829Z,15.25
2023-01-29T11:49:33.759Z,15.93
2023-01-29T11:52:21.992Z,16.90
2023-01-29T11:55:16.627Z,16.85
2023-01-29T11:58:06.576Z,16.45
2023-01-29T12:00:55.553Z,18.20
2023-01-29T12:03:48.426Z,17.85
2023-01-29T12:06:36.613Z,17.15
2023-01-29T12:09:24.572Z,17.23
2023-01-29T12:12:26.554Z,18.17
2023-01-29T12:15:26.661Z,18.20
2023-01-29T12:18:20.718Z,17.40
2023-01-29T12:21:20.648Z,17.40
2023-01-29T12:24:25.592Z,18.02
2023-01-29T12:27:17.430Z,17.45
2023-01-29T12:30:11.275Z,18.73
2023-01-29T12:33:02.960Z,17.77
2023-01-29T12:35:55.179Z,17.55
2023-01-29T12:38:45.030Z,17.38
2023-01-29T12:41:36.616Z,18.42
2023-01-29T12:44:29.114Z,17.42
2023-01-29T12:47:21.164Z,17.75
2023-01-29T12:50:15.246Z,18.60
2023-01-29T12:53:06.471Z,18.17
2023-01-29T12:55:58.880Z,19.27
2023-01-29T12:58:47.530Z,18.15
2023-01-29T13:01:38.786Z,19.17
2023-01-29T13:07:19.028Z,18.20
2023-01-29T13:10:11.987Z,18.90
2023-01-29T13:13:04.277Z,19.23
2023-01-29T13:15:51.691Z,19.05
2023-01-29T13:18:42.439Z,18.83
2023-01-29T13:21:35.127Z,21.05
2023-01-29T13:24:23.770Z,20.05
2023-01-29T13:27:20.990Z,20.08
2023-01-29T13:30:25.087Z,19.52
2023-01-29T13:33:21.093Z,18.88
2023-01-29T13:36:15.903Z,19.55
2023-01-29T13:39:05.236Z,19.15
2023-01-29T13:41:52.195Z,19.60
2023-01-29T13:44:39.900Z,19.30
2023-01-29T13:47:29.079Z,20.15
2023-01-29T13:50:21.270Z,19.83
2023-01-29T13:53:09.756Z,20.23
2023-01-29T13:55:55.669Z,19.17
2023-01-29T13:58:55.133Z,20.63
2023-01-29T14:02:04.581Z,19.30
2023-01-29T14:04:52.033Z,18.60
2023-01-29T14:07:50.314Z,19.33
2023-01-29T14:10:37.218Z,18.58
2023-01-29T14:13:28.177Z,20.48
2023-01-29T14:16:34.919Z,19.77
2023-01-29T14:19:22.035Z,19.80
2023-01-29T14:22:20.824Z,18.92
2023-01-29T14:25:08.363Z,19.13
2023-01-29T14:27:54.159Z,20.15
2023-01-29T14:30:41.238Z,20.35
2023-01-29T14:33:36.036Z,20.10
2023-01-29T14:36:23.791Z,20.23
2023-01-29T14:39:24.311Z,19.45
2023-01-29T14:42:22.361Z,21.17
2023-01-29T14:45:21.656Z,20.27
2023-01-29T14:48:36.547Z,20.75
2023-01-29T14:51:25.268Z,19.88
2023-01-29T14:54:27.929Z,20.63
2023-01-29T14:57:16.915Z,19.85
2023-01-29T15:00:05.689Z,19.60
2023-01-29T15:03:01.362Z,19.60
2023-01-29T15:05:49.126Z,21.20
2023-01-29T15:08:40.832Z,21.77
2023-01-29T15:11:36.098Z,20.15
2023-01-29T15:14:29.051Z,18.27
2023-01-29T15:17:25.094Z,20.20
2023-01-29T15:20:31.443Z,20.85
2023-01-29T15:23:25.879Z,19.98
2023-01-29T15:26:17.609Z,20.45
2023-01-29T15:29:06.074Z,21.27
2023-01-29T15:31:52.017Z,22.00
2023-01-29T15:34:37.689Z,20.70
2023-01-29T15:37:32.664Z,21.73
2023-01-29T15:40:19.832Z,20.33
2023-01-29T15:43:20.707Z,20.35
2023-01-29T15:46:16.099Z,21.40
2023-01-29T15:49:07.446Z,20.65
2023-01-29T15:51:57.679Z,20.35
2023-01-29T15:54:44.789Z,21.57
2023-01-29T15:57:37.552Z,19.58
2023-01-29T16:00:27.651Z,19.58
2023-01-29T16:03:21.880Z,21.65
2023-01-29T16:06:08.802Z,21.13
2023-01-29T16:08:55.581Z,21.25
2023-01-29T16:11:41.585Z,19.85
2023-01-29T16:14:29.915Z,20.33
2023-01-29T16:17:25.336Z,19.60
2023-01-29T16:20:32.125Z,21.08
2023-01-29T16:23:21.782Z,20.80
2023-01-29T16:26:13.983Z,19.70
2023-01-29T16:29:04.486Z,19.25
2023-01-29T16:31:53.177Z,21.05
2023-01-29T16:34:40.587Z,20.35
2023-01-29T16:37:30.363Z,19.98
2023-01-29T16:40:26.982Z,20.02
2023-01-29T16:43:48.700Z,19.35
2023-01-29T16:49:49.108Z,19.85
2023-01-29T16:52:37.033Z,19.00
2023-01-29T16:55:25.842Z,19.20
2023-01-29T16:58:15.951Z,18.83
2023-01-29T17:01:05.340Z,20.38
2023-01-29T17:03:59.229Z,19.77
2023-01-29T17:06:47.575Z,20.10
2023-01-29T17:09:37.785Z,20.60
2023-01-29T17:12:26.787Z,20.30
2023-01-29T17:15:33.050Z,19.63
2023-01-29T17:18:21.584Z,19.27
2023-01-29T17:21:07.256Z,19.20
2023-01-29T17:23:53.374Z,19.55
2023-01-29T17:26:41.204Z,19.05
2023-01-29T17:29:31.045Z,20.10
2023-01-29T17:32:20.507Z,18.67
2023-01-29T17:35:07.292Z,18.02
2023-01-29T17:37:53.702Z,18.52
2023-01-29T17:40:42.939Z,19.35
2023-01-29T17:43:30.138Z,19.33
2023-01-29T17:46:17.201Z,20.55
2023-01-29T17:49:04.665Z,19.65
2023-01-29T17:51:51.045Z,19.80
2023-01-29T17:54:36.706Z,18.05
2023-01-29T17:57:22.582Z,18.58
2023-01-29T18:00:17.379Z,17.33
2023-01-29T18:03:03.129Z,18.58
2023-01-29T18:05:50.098Z,19.63
2023-01-29T18:08:38.269Z,19.40
2023-01-29T18:11:23.938Z,17.02
2023-01-29T18:14:14.035Z,18.35
2023-01-29T18:17:01.801Z,19.17
2023-01-29T18:19:47.629Z,16.90
2023-01-29T18:22:33.749Z,18.50
2023-01-29T18:25:20.607Z,18.73
2023-01-29T18:28:07.263Z,17.92
2023-01-29T18:30:53.857Z,18.52
2023-01-29T18:33:41.196Z,18.27
2023-01-29T18:36:27.246Z,19.35
2023-01-29T18:39:13.041Z,17.75
2023-01-29T18:41:59.005Z,18.00
2023-01-29T18:44:44.653Z,17.95
2023-01-29T18:47:30.581Z,18.23
2023-01-29T18:50:19.025Z,16.83
2023-01-29T18:53:04.814Z,18.33
2023-01-29T18:55:58.284Z,18.38
2023-01-29T18:58:46.184Z,17.80
2023-01-29T19:01:39.102Z,16.95
2023-01-29T19:04:24.862Z,18.95
2023-01-29T19:07:13.071Z,17.80
2023-01-29T19:09:59.036Z,18.38
2023-01-29T19:12:45.134Z,18.20
2023-01-29T19:15:30.655Z,17.60
2023-01-29T19:18:16.685Z,18.75
2023-01-29T19:21:07.565Z,18.17
2023-01-29T19:23:54.912Z,18.58
2023-01-29T19:26:40.959Z,18.35
2023-01-29T19:29:26.702Z,18.58
2023-01-29T19:32:12.408Z,18.58
2023-01-29T19:34:58.521Z,19.13
2023-01-29T19:37:44.690Z,17.73
2023-01-29T19:40:32.554Z,18.83
2023-01-29T19:43:19.079Z,19.50
2023-01-29T19:46:04.650Z,19.10
2023-01-29T19:48:50.598Z,19.35
2023-01-29T19:51:36.156Z,19.40
2023-01-29T19:54:22.061Z,20.35
2023-01-29T19:57:09.698Z,18.27
2023-01-29T19:59:55.791Z,19.88
2023-01-29T20:02:41.615Z,18.40
2023-01-29T20:05:27.817Z,19.73
2023-01-29T20:08:14.004Z,19.73
2023-01-29T20:11:00.298Z,20.42
2023-01-29T20:13:50.179Z,20.08
2023-01-29T20:16:37.047Z,19.10
2023-01-29T20:19:23.316Z,20.15
2023-01-29T20:22:09.343Z,20.95
2023-01-29T20:24:56.363Z,19.70
2023-01-29T20:27:42.159Z,20.15
2023-01-29T20:30:29.712Z,20.20
2023-01-29T20:33:15.554Z,20.80
2023-01-29T20:36:03.546Z,21.88
2023-01-29T20:38:49.482Z,20.27
2023-01-29T20:41:35.273Z,20.95
2023-01-29T20:44:21.124Z,18.08
2023-01-29T20:47:08.866Z,21.83
2023-01-29T20:49:55.121Z,20.08
2023-01-29T20:52:42.150Z,21.55
2023-01-29T20:55:28.577Z,20.50
2023-01-29T20:58:14.732Z,21.92
2023-01-29T21:01:01.530Z,20.88
2023-01-29T21:03:49.326Z,22.33
2023-01-29T21:06:35.646Z,21.65
2023-01-29T21:09:21.553Z,21.67
2023-01-29T21:12:08.212Z,22.52
2023-01-29T21:14:54.458Z,22.63
2023-01-29T21:17:40.773Z,21.58
2023-01-29T21:20:28.690Z,22.85
2023-01-29T21:23:14.652Z,23.27
2023-01-29T21:26:02.388Z,23.55
2023-01-29T21:28:48.315Z,22.90
2023-01-29T21:31:33.990Z,23.70
2023-01-29T21:34:20.247Z,24.05
2023-01-29T21:37:07.466Z,24.92
2023-01-29T21:39:52.847Z,24.35
2023-01-29T21:42:57.097Z,23.65
2023-01-29T21:45:43.437Z,25.48
2023-01-29T21:48:28.832Z,23.85
2023-01-29T21:51:15.644Z,26.15
2023-01-29T21:54:05.044Z,25.92
2023-01-29T21:56:51.073Z,25.67
2023-01-29T21:59:37.014Z,24.27
2023-01-29T22:02:23.668Z,24.80
2023-01-29T22:05:18.943Z,26.48
2023-01-29T22:08:06.007Z,25.17
2023-01-29T22:10:53.723Z,25.90
2023-01-29T22:13:39.566Z,24.70
2023-01-29T22:16:25.427Z,25.85
2023-01-29T22:19:12.066Z,25.17
2023-01-29T22:21:58.334Z,25.88
2023-01-29T22:24:46.520Z,26.10
2023-01-29T22:27:33.976Z,26.10
2023-01-29T22:30:20.497Z,25.88
2023-01-29T22:33:06.845Z,25.58
2023-01-29T22:35:53.989Z,28.10
2023-01-29T22:38:41.759Z,26.52
2023-01-29T22:41:27.888Z,27.60
2023-01-29T22:44:14.788Z,28.30
2023-01-29T22:47:00.402Z,28.85
2023-01-29T22:49:49.288Z,27.67
2023-01-29T22:52:42.799Z,27.20
2023-01-29T22:55:28.549Z,28.98
2023-01-29T22:58:14.194Z,26.50
2023-01-29T23:01:01.652Z,28.48
2023-01-29T23:03:47.666Z,27.90
2023-01-29T23:06:33.191Z,27.02
2023-01-29T23:09:18.850Z,27.48
2023-01-29T23:12:04.906Z,27.92
2023-01-29T23:14:51.174Z,28.20
2023-01-29T23:17:39.774Z,27.13
2023-01-29T23:20:25.623Z,27.73
2023-01-29T23:23:13.462Z,28.17
2023-01-29T23:26:18.643Z,27.58
2023-01-29T23:29:04.668Z,28.20
2023-01-29T23:31:50.412Z,28.25
2023-01-29T23:34:38.004Z,28.83
2023-01-29T23:37:23.944Z,27.30
2023-01-29T23:40:10.971Z,27.48
2023-01-29T23:42:56.451Z,26.40
2023-01-29T23:45:42.367Z,27.60
2023-01-29T23:48:27.902Z,28.50
2023-01-29T23:51:15.354Z,28.63
2023-01-29T23:54:01.555Z,28.58
2023-01-29T23:56:47.492Z,27.23
2023-01-29T23:59:33.276Z,26.48
